Time;durP1;ratioP1;P1;durP2;ratioP2;P2;SDS_P1;SDS_P2;PMS_P1;PMS_P2;Temp;Humidity;BMP_temperature;BMP_pressure;BME280_temperature;BME280_humidity;BME280_pressure;Samples;Min_cycle;Max_cycle;Signal;HPM_P1;HPM_P2
2022/08/22 00:00:19;;;;;;;0.25;0.25;;;24.30;65.80;;;;;;3912100;30;20064;-70
2022/08/22 00:02:50;;;;;;;0.00;0.00;;;24.30;65.90;;;;;;3911858;30;20084;-70
2022/08/22 00:05:45;;;;;;;0.00;0.00;;;24.30;65.90;;;;;;3898734;30;20191;-70
2022/08/22 00:08:15;;;;;;;0.00;0.00;;;24.30;65.90;;;;;;3899027;30;20213;-70
2022/08/22 00:10:51;;;;;;;0.00;0.00;;;24.30;65.90;;;;;;3911659;30;20448;-70
2022/08/22 00:13:18;;;;;;;0.00;0.00;;;24.30;66.00;;;;;;3898522;30;20048;-70
2022/08/22 00:15:47;;;;;;;0.00;0.00;;;24.30;65.90;;;;;;3911751;30;20086;-70
2022/08/22 00:18:15;;;;;;;0.00;0.00;;;24.30;66.00;;;;;;3912189;30;20482;-70
2022/08/22 00:20:44;;;;;;;1.23;1.13;;;24.30;66.00;;;;;;3911851;30;20048;-70
2022/08/22 00:23:16;;;;;;;0.00;0.00;;;24.30;66.00;;;;;;3912260;30;20067;-70
2022/08/22 00:25:47;;;;;;;0.00;0.00;;;24.30;66.00;;;;;;3911880;30;20118;-70
2022/08/22 00:28:13;;;;;;;0.17;0.17;;;24.20;66.00;;;;;;3911557;30;20060;-70
2022/08/22 00:30:46;;;;;;;0.50;0.38;;;24.20;66.10;;;;;;3912035;30;20063;-69
2022/08/22 00:33:20;;;;;;;0.00;0.00;;;24.20;66.00;;;;;;3912093;30;20052;-69
2022/08/22 00:35:48;;;;;;;0.00;0.00;;;24.20;66.20;;;;;;3911603;30;20457;-69
2022/08/22 00:38:14;;;;;;;0.15;0.15;;;24.20;67.00;;;;;;3911505;30;20147;-69
2022/08/22 00:40:52;;;;;;;0.17;0.17;;;24.20;66.10;;;;;;3911389;30;20049;-70
2022/08/22 00:43:52;;;;;;;0.00;0.00;;;24.20;66.20;;;;;;3914394;30;20065;-70
2022/08/22 00:46:29;;;;;;;0.00;0.00;;;24.20;66.10;;;;;;3913813;30;20114;-70
2022/08/22 00:49:19;;;;;;;0.00;0.00;;;24.20;66.10;;;;;;3914873;30;20056;-70
2022/08/22 00:52:15;;;;;;;0.00;0.00;;;24.20;66.20;;;;;;3914954;30;20048;-69
2022/08/22 00:55:00;;;;;;;0.00;0.00;;;24.10;66.10;;;;;;3913806;30;20574;-71
2022/08/22 00:58:01;;;;;;;0.00;0.00;;;24.20;66.10;;;;;;3914637;30;20155;-69
2022/08/22 01:00:25;;;;;;;0.00;0.00;;;24.10;66.10;;;;;;3913684;30;20052;-70
2022/08/22 01:03:20;;;;;;;0.77;0.77;;;24.10;66.10;;;;;;3914719;30;20052;-70
2022/08/22 01:05:52;;;;;;;0.00;0.00;;;24.10;66.10;;;;;;3895861;30;20060;-70
2022/08/22 01:08:31;;;;;;;0.00;0.00;;;24.10;66.20;;;;;;3900588;30;20059;-72
2022/08/22 01:11:09;;;;;;;0.00;0.00;;;24.10;66.20;;;;;;3913872;30;20393;-72
2022/08/22 01:13:44;;;;;;;0.00;0.00;;;24.10;66.30;;;;;;3914078;30;20114;-71
2022/08/22 01:16:31;;;;;;;0.00;0.00;;;24.10;67.20;;;;;;3914159;30;20060;-69
2022/08/22 01:19:11;;;;;;;1.02;0.55;;;24.10;66.50;;;;;;3913156;30;20075;-72
2022/08/22 01:22:12;;;;;;;0.00;0.00;;;24.10;66.50;;;;;;3913291;30;20048;-69
2022/08/22 01:25:17;;;;;;;0.00;0.00;;;24.10;66.50;;;;;;3914443;30;20118;-69
2022/08/22 01:28:16;;;;;;;1.63;0.57;;;24.10;66.50;;;;;;3899632;30;20075;-69
2022/08/22 01:31:08;;;;;;;0.00;0.00;;;24.10;66.50;;;;;;3899618;30;20049;-70
2022/08/22 01:34:12;;;;;;;0.00;0.00;;;24.00;66.40;;;;;;3899716;30;20119;-71
2022/08/22 01:36:58;;;;;;;0.10;0.10;;;24.00;66.40;;;;;;3900289;30;20112;-69
2022/08/22 01:39:47;;;;;;;0.00;0.00;;;24.10;66.40;;;;;;3914404;30;20584;-71
2022/08/22 01:42:33;;;;;;;0.10;0.10;;;24.00;66.40;;;;;;3913806;30;20072;-69
2022/08/22 01:45:23;;;;;;;0.00;0.00;;;24.00;66.50;;;;;;3913263;30;20220;-71
2022/08/22 01:47:51;;;;;;;0.75;0.38;;;24.00;66.50;;;;;;3900684;30;20414;-71
2022/08/22 01:50:24;;;;;;;0.00;0.00;;;24.00;66.60;;;;;;3913660;30;20048;-71
2022/08/22 01:52:49;;;;;;;0.00;0.00;;;24.00;66.80;;;;;;3900145;30;20639;-71
2022/08/22 01:55:21;;;;;;;0.00;0.00;;;24.00;66.90;;;;;;3914015;30;20106;-71
2022/08/22 01:57:52;;;;;;;0.00;0.00;;;24.00;66.90;;;;;;3913723;30;20110;-71
2022/08/22 02:00:19;;;;;;;0.00;0.00;;;24.00;67.00;;;;;;3913831;30;20149;-71
2022/08/22 02:02:58;;;;;;;0.00;0.00;;;24.00;67.10;;;;;;3913552;30;20176;-71
2022/08/22 02:05:30;;;;;;;0.10;0.10;;;24.00;67.10;;;;;;3913439;30;20063;-72
2022/08/22 02:07:59;;;;;;;0.00;0.00;;;24.00;67.10;;;;;;3913678;30;20127;-71
2022/08/22 02:10:40;;;;;;;0.00;0.00;;;24.00;67.10;;;;;;3913775;30;20588;-71
2022/08/22 02:13:08;;;;;;;0.10;0.10;;;24.00;67.10;;;;;;3913340;30;20051;-71
2022/08/22 02:15:41;;;;;;;0.00;0.00;;;23.90;67.10;;;;;;3913907;30;20060;-71
2022/08/22 02:18:17;;;;;;;0.25;0.25;;;24.00;67.20;;;;;;3913386;30;20523;-71
2022/08/22 02:20:57;;;;;;;0.43;0.43;;;23.90;67.10;;;;;;3913268;30;20088;-71
2022/08/22 02:23:26;;;;;;;0.00;0.00;;;23.90;67.10;;;;;;3913459;30;20056;-72
2022/08/22 02:25:53;;;;;;;0.00;0.00;;;24.00;67.20;;;;;;3913219;30;20052;-71
2022/08/22 02:28:22;;;;;;;0.00;0.00;;;23.90;68.00;;;;;;3913310;30;20063;-71
2022/08/22 02:30:50;;;;;;;0.00;0.00;;;23.90;67.10;;;;;;3912366;30;20059;-70
2022/08/22 02:33:21;;;;;;;0.00;0.00;;;23.90;67.10;;;;;;3913653;30;20060;-71
2022/08/22 02:35:54;;;;;;;0.00;0.00;;;24.00;67.20;;;;;;3913401;30;20055;-71
2022/08/22 02:38:27;;;;;;;0.00;0.00;;;23.90;67.20;;;;;;3912853;30;20052;-71
2022/08/22 02:40:59;;;;;;;0.00;0.00;;;23.90;67.10;;;;;;3913092;30;20405;-71
2022/08/22 02:43:26;;;;;;;0.00;0.00;;;23.90;67.10;;;;;;3912941;30;20362;-70
2022/08/22 02:45:54;;;;;;;23.77;1.15;;;23.90;67.10;;;;;;3913049;30;20091;-71
2022/08/22 02:48:27;;;;;;;0.00;0.00;;;23.90;67.20;;;;;;3912462;30;20412;-72
2022/08/22 02:50:56;;;;;;;0.00;0.00;;;23.90;67.20;;;;;;3912593;30;20048;-71
2022/08/22 02:53:27;;;;;;;0.00;0.00;;;23.80;67.10;;;;;;3913075;30;20469;-72
2022/08/22 02:55:56;;;;;;;0.57;0.57;;;23.80;67.10;;;;;;3912475;30;20075;-71
2022/08/22 02:58:26;;;;;;;0.00;0.00;;;23.80;67.20;;;;;;3898676;30;20140;-71
2022/08/22 03:01:10;;;;;;;0.00;0.00;;;23.90;67.30;;;;;;3898545;30;20103;-71
2022/08/22 03:03:39;;;;;;;0.00;0.00;;;23.90;67.30;;;;;;3897575;30;20059;-71
2022/08/22 03:06:06;;;;;;;0.47;0.47;;;23.80;67.20;;;;;;3898593;30;20508;-71
2022/08/22 03:08:31;;;;;;;0.00;0.00;;;23.80;67.20;;;;;;3885404;30;20513;-70
2022/08/22 03:11:05;;;;;;;0.03;0.03;;;23.80;67.30;;;;;;3898601;30;20053;-71
2022/08/22 03:13:39;;;;;;;0.00;0.00;;;23.80;67.30;;;;;;3898379;30;20115;-71
2022/08/22 03:16:10;;;;;;;0.03;0.03;;;23.80;67.30;;;;;;3885498;30;20072;-71
2022/08/22 03:18:44;;;;;;;1.33;1.15;;;23.80;68.20;;;;;;3902880;30;20057;-71
2022/08/22 03:21:17;;;;;;;0.20;0.20;;;23.80;67.30;;;;;;3912633;30;20141;-71
2022/08/22 03:23:43;;;;;;;0.25;0.25;;;23.80;67.40;;;;;;3899263;30;20481;-70
2022/08/22 03:26:13;;;;;;;0.00;0.00;;;23.80;67.40;;;;;;3911704;30;20472;-71
2022/08/22 03:28:43;;;;;;;1.33;1.30;;;23.80;67.50;;;;;;3912429;30;20055;-71
2022/08/22 03:31:17;;;;;;;0.00;0.00;;;23.80;67.50;;;;;;3911728;30;20488;-73
2022/08/22 03:33:40;;;;;;;0.00;0.00;;;23.80;67.50;;;;;;3898699;30;20788;-72
2022/08/22 03:36:21;;;;;;;0.00;0.00;;;23.80;67.50;;;;;;3912586;30;20064;-71
2022/08/22 03:39:07;;;;;;;0.00;0.00;;;23.70;67.50;;;;;;3912537;30;20045;-71
2022/08/22 03:41:56;;;;;;;0.10;0.10;;;23.70;67.50;;;;;;3911960;30;20528;-71
2022/08/22 03:44:54;;;;;;;0.00;0.00;;;23.70;67.50;;;;;;3912553;30;20118;-71
2022/08/22 03:47:44;;;;;;;0.00;0.00;;;23.80;67.60;;;;;;3911822;30;20158;-71
2022/08/22 03:50:49;;;;;;;0.00;0.00;;;23.70;67.60;;;;;;3898786;30;20140;-71
2022/08/22 03:53:33;;;;;;;0.00;0.00;;;23.70;67.50;;;;;;3903172;30;20353;-71
2022/08/22 03:56:32;;;;;;;0.00;0.00;;;23.70;67.50;;;;;;3911032;30;20528;-71
2022/08/22 03:59:31;;;;;;;0.10;0.10;;;23.70;67.60;;;;;;3891770;30;20102;-71
2022/08/22 04:02:20;;;;;;;0.00;0.00;;;23.70;67.60;;;;;;3912021;30;20063;-70
2022/08/22 04:05:28;;;;;;;0.00;0.00;;;23.60;67.70;;;;;;3912204;30;20138;-70
2022/08/22 04:08:22;;;;;;;0.00;0.00;;;23.70;67.70;;;;;;3886811;30;20151;-70
2022/08/22 04:11:25;;;;;;;0.00;0.00;;;23.70;67.70;;;;;;3911689;30;20068;-70
2022/08/22 04:14:08;;;;;;;0.00;0.00;;;23.60;67.60;;;;;;3896123;30;20463;-70
2022/08/22 04:16:57;;;;;;;1.30;0.63;;;23.60;67.60;;;;;;3911798;30;20064;-69
2022/08/22 04:19:57;;;;;;;0.00;0.00;;;23.60;67.60;;;;;;3912112;30;20059;-69
2022/08/22 04:22:50;;;;;;;0.00;0.00;;;23.60;67.70;;;;;;3897679;30;20130;-69
2022/08/22 04:25:18;;;;;;;0.00;0.00;;;23.60;67.70;;;;;;3898436;30;20081;-69
2022/08/22 04:27:49;;;;;;;0.15;0.15;;;23.60;67.80;;;;;;3912127;30;20051;-68
2022/08/22 04:30:19;;;;;;;0.00;0.00;;;23.60;67.80;;;;;;3912359;30;20536;-70
2022/08/22 04:32:45;;;;;;;0.05;0.05;;;23.60;68.20;;;;;;3911605;30;20598;-69
2022/08/22 04:35:13;;;;;;;0.00;0.00;;;23.60;68.00;;;;;;3911905;30;20063;-70
2022/08/22 04:37:45;;;;;;;0.00;0.00;;;23.60;67.90;;;;;;3911086;30;20060;-70
2022/08/22 04:40:11;;;;;;;0.00;0.00;;;23.60;67.90;;;;;;3911409;30;20571;-70
2022/08/22 04:42:39;;;;;;;0.03;0.03;;;23.60;67.80;;;;;;3911813;30;20060;-71
2022/08/22 04:45:09;;;;;;;0.00;0.00;;;23.60;67.90;;;;;;3911969;30;20067;-71
2022/08/22 04:47:36;;;;;;;0.00;0.00;;;23.60;68.70;;;;;;3910511;30;20498;-71
2022/08/22 04:50:05;;;;;;;0.75;0.75;;;23.60;67.90;;;;;;3911582;30;20052;-71
2022/08/22 04:52:36;;;;;;;0.00;0.00;;;23.60;67.90;;;;;;3898304;30;20053;-71
2022/08/22 04:55:14;;;;;;;0.00;0.00;;;23.60;67.90;;;;;;3898013;30;20119;-69
2022/08/22 04:57:48;;;;;;;0.93;0.43;;;23.60;67.90;;;;;;3898424;30;20552;-69
2022/08/22 05:00:14;;;;;;;0.00;0.00;;;23.60;67.90;;;;;;3910520;30;20485;-69
2022/08/22 05:02:40;;;;;;;0.00;0.00;;;23.60;67.90;;;;;;3911422;30;20152;-69
2022/08/22 05:05:05;;;;;;;0.00;0.00;;;23.50;67.80;;;;;;3912066;30;20056;-69
2022/08/22 05:07:35;;;;;;;0.10;0.10;;;23.60;67.80;;;;;;3911601;30;20147;-69
2022/08/22 05:10:01;;;;;;;0.00;0.00;;;23.60;67.80;;;;;;3911312;30;20067;-69
2022/08/22 05:12:33;;;;;;;0.00;0.00;;;23.60;67.70;;;;;;3911425;30;20075;-69
2022/08/22 05:15:01;;;;;;;0.75;0.75;;;23.60;67.70;;;;;;3911381;30;20068;-69
2022/08/22 05:17:27;;;;;;;0.00;0.00;;;23.60;67.60;;;;;;3911739;30;20417;-69
2022/08/22 05:19:53;;;;;;;0.45;0.45;;;23.50;68.40;;;;;;3911443;30;20136;-69
2022/08/22 05:22:20;;;;;;;0.10;0.10;;;23.50;67.50;;;;;;3911662;30;20153;-69
2022/08/22 05:24:45;;;;;;;0.00;0.00;;;23.50;67.50;;;;;;3911163;30;20130;-70
2022/08/22 05:27:11;;;;;;;0.00;0.00;;;23.50;67.50;;;;;;3911588;30;20073;-71
2022/08/22 05:29:34;;;;;;;0.00;0.00;;;23.50;67.40;;;;;;3901195;30;20041;-69
2022/08/22 05:32:01;;;;;;;0.00;0.00;;;23.50;67.40;;;;;;3914086;30;20052;-69
2022/08/22 05:34:28;;;;;;;0.93;0.65;;;23.50;67.40;;;;;;3913771;30;20110;-69
2022/08/22 05:36:57;;;;;;;0.00;0.00;;;23.50;67.40;;;;;;3914143;30;20048;-69
2022/08/22 05:39:22;;;;;;;0.65;0.65;;;23.50;68.30;;;;;;3900980;30;20452;-69
2022/08/22 05:41:47;;;;;;;0.00;0.00;;;23.50;67.40;;;;;;3914262;30;20059;-69
2022/08/22 05:44:19;;;;;;;0.00;0.00;;;23.50;67.40;;;;;;3914143;30;20068;-68
2022/08/22 05:46:43;;;;;;;0.00;0.00;;;23.50;67.40;;;;;;3913698;30;20061;-69
2022/08/22 05:49:14;;;;;;;0.32;0.32;;;23.50;67.40;;;;;;3913802;30;20048;-68
2022/08/22 05:51:47;;;;;;;0.08;0.08;;;23.40;67.40;;;;;;3913859;30;20087;-69
2022/08/22 05:54:16;;;;;;;0.00;0.00;;;23.40;67.40;;;;;;3913779;30;20491;-69
2022/08/22 05:56:42;;;;;;;0.00;0.00;;;23.50;67.50;;;;;;3914108;30;20501;-68
2022/08/22 05:59:17;;;;;;;0.13;0.13;;;23.50;67.50;;;;;;3914239;30;20075;-68
2022/08/22 06:01:48;;;;;;;0.10;0.10;;;23.40;67.50;;;;;;3913835;30;20415;-68
2022/08/22 06:04:17;;;;;;;0.00;0.00;;;23.40;67.50;;;;;;3913856;30;20057;-68
2022/08/22 06:06:46;;;;;;;0.30;0.30;;;23.40;67.60;;;;;;3913528;30;20114;-69
2022/08/22 06:09:14;;;;;;;0.00;0.00;;;23.40;67.60;;;;;;3913253;30;20063;-68
2022/08/22 06:11:42;;;;;;;0.00;0.00;;;23.40;67.70;;;;;;3914152;30;20068;-69
2022/08/22 06:14:12;;;;;;;1.45;0.70;;;23.40;67.70;;;;;;3914103;30;20061;-69
2022/08/22 06:16:41;;;;;;;0.08;0.08;;;23.40;67.70;;;;;;3912904;30;20060;-69
2022/08/22 06:19:09;;;;;;;0.00;0.00;;;23.40;67.80;;;;;;3911074;30;20379;-69
2022/08/22 06:21:43;;;;;;;0.00;0.00;;;23.40;67.80;;;;;;3913790;30;20047;-68
2022/08/22 06:24:09;;;;;;;0.00;0.00;;;23.40;67.80;;;;;;3913516;30;20457;-69
2022/08/22 06:26:36;;;;;;;0.00;0.00;;;23.40;67.80;;;;;;3912534;30;20045;-70
2022/08/22 06:29:01;;;;;;;0.00;0.00;;;23.40;67.80;;;;;;3911019;30;20163;-70
2022/08/22 06:31:29;;;;;;;0.00;0.00;;;23.40;67.90;;;;;;3913995;30;20066;-70
2022/08/22 06:33:57;;;;;;;0.00;0.00;;;23.40;68.00;;;;;;3913669;30;20052;-70
2022/08/22 06:36:32;;;;;;;0.20;0.10;;;23.40;68.10;;;;;;3913323;30;20715;-71
2022/08/22 06:39:15;;;;;;;0.00;0.00;;;23.40;68.30;;;;;;3909463;30;20143;-71
2022/08/22 06:41:41;;;;;;;4.57;2.28;;;23.40;68.60;;;;;;3913465;30;20056;-71
2022/08/22 06:44:09;;;;;;;0.00;0.00;;;23.40;68.60;;;;;;3900330;30;20544;-70
2022/08/22 06:46:35;;;;;;;0.00;0.00;;;23.50;69.50;;;;;;3912933;30;20052;-70
2022/08/22 06:49:00;;;;;;;0.00;0.00;;;23.50;68.50;;;;;;3911813;30;20408;-70
2022/08/22 06:51:26;;;;;;;0.00;0.00;;;23.40;68.40;;;;;;3913250;30;20049;-70
2022/08/22 06:53:52;;;;;;;0.00;0.00;;;23.50;68.50;;;;;;3912322;30;20185;-70
2022/08/22 06:56:20;;;;;;;0.00;0.00;;;23.50;68.50;;;;;;3911922;30;20503;-70
2022/08/22 06:58:45;;;;;;;0.00;0.00;;;23.50;68.50;;;;;;3911317;30;20114;-70
2022/08/22 07:01:12;;;;;;;0.00;0.00;;;23.40;69.40;;;;;;3912797;30;20109;-70
2022/08/22 07:03:38;;;;;;;0.00;0.00;;;23.40;68.50;;;;;;3912168;30;20402;-71
2022/08/22 07:06:00;;;;;;;0.20;0.20;;;23.40;68.50;;;;;;3898331;30;20056;-70
2022/08/22 07:08:24;;;;;;;0.00;0.00;;;23.40;68.60;;;;;;3912380;30;20474;-69
2022/08/22 07:10:56;;;;;;;0.08;0.08;;;23.40;68.60;;;;;;3913198;30;20734;-70
2022/08/22 07:13:20;;;;;;;2.45;0.75;;;23.40;68.60;;;;;;3912896;30;20497;-71
2022/08/22 07:15:43;;;;;;;3.35;0.95;;;23.40;68.60;;;;;;3912404;30;20087;-70
2022/08/22 07:18:08;;;;;;;0.00;0.00;;;23.40;68.70;;;;;;3913024;30;20653;-70
2022/08/22 07:20:34;;;;;;;0.00;0.00;;;23.40;68.70;;;;;;3912892;30;20072;-70
2022/08/22 07:22:58;;;;;;;0.10;0.10;;;23.40;68.80;;;;;;3912905;30;20153;-70
2022/08/22 07:25:23;;;;;;;0.47;0.47;;;23.50;68.90;;;;;;3899115;30;20771;-70
2022/08/22 07:28:03;;;;;;;0.00;0.00;;;23.40;68.90;;;;;;3899363;30;20406;-71
2022/08/22 07:30:42;;;;;;;0.00;0.00;;;23.50;69.10;;;;;;3912497;30;20127;-71
2022/08/22 07:33:14;;;;;;;0.10;0.10;;;23.50;70.00;;;;;;3912430;30;20160;-71
2022/08/22 07:35:49;;;;;;;0.00;0.00;;;23.50;69.10;;;;;;3899518;30;20076;-71
2022/08/22 07:38:23;;;;;;;1.25;1.25;;;23.50;69.30;;;;;;3911960;30;20078;-71
2022/08/22 07:40:55;;;;;;;1.13;1.08;;;23.50;69.20;;;;;;3912621;30;20057;-71
2022/08/22 07:43:23;;;;;;;;;;;23.50;69.30;;;;;;3911913;30;20114;-70
2022/08/22 07:45:52;;;;;;;0.00;0.00;;;23.50;69.20;;;;;;3912176;30;19933;-68
2022/08/22 07:48:20;;;;;;;0.00;0.00;;;23.50;69.30;;;;;;3912331;30;20052;-68
2022/08/22 07:50:57;;;;;;;0.00;0.00;;;23.50;69.30;;;;;;3898769;30;20136;-68
2022/08/22 07:53:26;;;;;;;0.00;0.00;;;23.40;69.30;;;;;;3912016;30;20052;-68
2022/08/22 07:55:48;;;;;;;0.20;0.20;;;23.50;70.40;;;;;;3912545;30;20053;-68
2022/08/22 07:58:12;;;;;;;0.00;0.00;;;23.50;69.60;;;;;;3899188;30;20092;-69
2022/08/22 08:00:41;;;;;;;0.00;0.00;;;23.50;69.60;;;;;;3912331;30;20052;-69
2022/08/22 08:03:07;;;;;;;0.00;0.00;;;23.50;69.60;;;;;;3911246;30;20060;-67
2022/08/22 08:05:32;;;;;;;0.00;0.00;;;23.50;70.40;;;;;;3912113;30;20488;-68
2022/08/22 08:07:56;;;;;;;0.10;0.10;;;23.50;70.30;;;;;;3911732;30;20080;-74
2022/08/22 08:10:22;;;;;;;2.85;0.65;;;23.50;69.90;;;;;;3908618;30;20114;-66
2022/08/22 08:12:48;;;;;;;0.05;0.05;;;23.60;70.00;;;;;;3896702;30;20081;-66
2022/08/22 08:15:19;;;;;;;0.00;0.00;;;23.50;69.80;;;;;;3910045;30;20071;-67
2022/08/22 08:17:43;;;;;;;0.00;0.00;;;23.60;69.90;;;;;;3909028;30;20056;-67
2022/08/22 08:20:11;;;;;;;2.40;1.35;;;23.60;69.90;;;;;;3908890;30;20056;-67
2022/08/22 08:22:34;;;;;;;0.00;0.00;;;23.60;70.00;;;;;;3909528;30;20248;-66
2022/08/22 08:24:58;;;;;;;0.00;0.00;;;23.60;69.90;;;;;;3912335;30;20072;-66
2022/08/22 08:30:11;;;;;;;0.10;0.10;;;23.60;69.70;;;;;;3912229;30;20056;-66
2022/08/22 08:32:38;;;;;;;0.20;0.20;;;23.60;69.60;;;;;;3911966;30;20414;-66
2022/08/22 08:35:07;;;;;;;0.40;0.40;;;23.60;69.40;;;;;;3911929;30;20053;-67
2022/08/22 08:37:35;;;;;;;0.68;0.68;;;23.60;69.30;;;;;;3911764;30;20080;-67
2022/08/22 08:39:59;;;;;;;0.00;0.00;;;23.70;69.30;;;;;;3912278;30;20057;-67
2022/08/22 08:46:00;;;;;;;0.10;0.10;;;23.80;69.10;;;;;;3910743;30;20060;-67
2022/08/22 08:48:43;;;;;;;0.00;0.00;;;23.80;68.90;;;;;;3911013;30;20085;-67
2022/08/22 08:51:19;;;;;;;6.70;1.67;;;23.80;68.80;;;;;;3911652;30;20106;-67
2022/08/22 08:53:56;;;;;;;0.32;0.32;;;23.80;68.60;;;;;;3898138;30;20059;-66
2022/08/22 08:56:29;;;;;;;0.00;0.00;;;23.80;68.40;;;;;;3911783;30;20060;-66
2022/08/22 08:59:03;;;;;;;0.57;0.57;;;23.80;68.40;;;;;;3911246;30;20114;-67
2022/08/22 09:02:15;;;;;;;0.28;0.28;;;23.80;68.30;;;;;;3911352;30;20547;-66
2022/08/22 09:05:11;;;;;;;0.00;0.00;;;23.90;68.30;;;;;;3914428;30;20063;-68
2022/08/22 09:07:54;;;;;;;0.00;0.00;;;23.90;68.20;;;;;;3913916;30;20064;-67
2022/08/22 09:10:39;;;;;;;0.00;0.00;;;23.90;68.10;;;;;;3914215;30;20517;-68
2022/08/22 09:13:28;;;;;;;0.45;0.45;;;23.90;68.00;;;;;;3914223;30;20528;-68
2022/08/22 09:16:08;;;;;;;0.40;0.40;;;23.90;67.90;;;;;;3914583;30;20059;-67
2022/08/22 09:18:53;;;;;;;0.00;0.00;;;23.90;67.80;;;;;;3914241;30;20595;-68
2022/08/22 09:21:33;;;;;;;0.00;0.00;;;23.90;67.80;;;;;;3914196;30;20067;-68
2022/08/22 09:24:45;;;;;;;0.05;0.05;;;23.90;67.80;;;;;;3914384;30;20137;-67
2022/08/22 09:27:14;;;;;;;0.00;0.00;;;23.90;67.70;;;;;;3914669;30;20513;-68
2022/08/22 09:29:42;;;;;;;0.47;0.47;;;23.90;68.40;;;;;;3914131;30;20382;-68
2022/08/22 09:32:19;;;;;;;0.00;0.00;;;24.00;67.60;;;;;;3901204;30;20064;-68
2022/08/22 09:34:56;;;;;;;0.00;0.00;;;24.00;67.60;;;;;;3914101;30;20060;-72
2022/08/22 09:37:24;;;;;;;0.00;0.00;;;23.90;67.50;;;;;;3900995;30;20200;-71
2022/08/22 09:40:00;;;;;;;0.57;0.57;;;24.00;67.50;;;;;;3914758;30;20076;-71
2022/08/22 09:42:30;;;;;;;0.00;0.00;;;24.00;67.40;;;;;;3887271;30;20053;-72
2022/08/22 09:45:19;;;;;;;0.00;0.00;;;24.10;67.50;;;;;;3900057;30;20065;-71
2022/08/22 09:47:49;;;;;;;0.10;0.10;;;24.10;67.50;;;;;;3913713;30;20089;-71
2022/08/22 09:50:16;;;;;;;0.00;0.00;;;24.10;67.50;;;;;;3900787;30;20053;-71
2022/08/22 09:52:52;;;;;;;0.00;0.00;;;24.20;67.60;;;;;;3914006;30;20824;-73
2022/08/22 09:55:34;;;;;;;0.38;0.38;;;24.20;67.20;;;;;;3914200;30;20083;-73
2022/08/22 09:58:16;;;;;;;0.00;0.00;;;24.20;67.10;;;;;;3899514;30;20061;-72
2022/08/22 10:00:46;;;;;;;0.00;0.00;;;24.20;66.90;;;;;;3898401;30;20080;-72
2022/08/22 10:03:17;;;;;;;0.08;0.08;;;24.20;66.80;;;;;;3899523;30;20502;-72
2022/08/22 10:05:45;;;;;;;0.20;0.20;;;24.20;66.80;;;;;;3899990;30;20441;-72
2022/08/22 10:08:34;;;;;;;0.00;0.00;;;24.20;66.60;;;;;;3913528;30;20067;-71
2022/08/22 10:11:08;;;;;;;0.00;0.00;;;24.30;66.60;;;;;;3908096;30;20140;-72
2022/08/22 10:13:39;;;;;;;0.40;0.40;;;24.30;66.60;;;;;;3884727;30;20477;-71
2022/08/22 10:16:16;;;;;;;0.00;0.00;;;24.20;66.40;;;;;;3898692;30;20064;-72
2022/08/22 10:18:47;;;;;;;0.00;0.00;;;24.30;66.20;;;;;;3907089;30;20163;-72
2022/08/22 10:21:27;;;;;;;0.00;0.00;;;24.30;66.20;;;;;;3900485;30;20122;-72
2022/08/22 10:23:54;;;;;;;0.00;0.00;;;24.30;66.20;;;;;;3913978;30;20060;-71
2022/08/22 10:26:30;;;;;;;0.00;0.00;;;24.30;66.20;;;;;;3913831;30;20143;-71
2022/08/22 10:29:03;;;;;;;0.00;0.00;;;24.30;66.00;;;;;;3913934;30;20169;-70
2022/08/22 10:31:34;;;;;;;0.57;0.57;;;24.30;65.90;;;;;;3913616;30;20064;-71
2022/08/22 10:34:06;;;;;;;0.00;0.00;;;24.30;65.70;;;;;;3913819;30;20055;-72
2022/08/22 10:36:35;;;;;;;0.00;0.00;;;24.40;65.60;;;;;;3914069;30;20056;-72
2022/08/22 10:39:00;;;;;;;0.00;0.00;;;24.50;65.40;;;;;;3913352;30;20056;-72
2022/08/22 10:41:35;;;;;;;0.00;0.00;;;24.40;65.30;;;;;;3913385;30;20044;-71
2022/08/22 10:44:02;;;;;;;0.10;0.10;;;24.50;66.20;;;;;;3912764;30;20080;-70
2022/08/22 10:46:31;;;;;;;3.03;0.73;;;24.50;65.30;;;;;;3899586;30;20858;-71
2022/08/22 10:48:59;;;;;;;0.70;0.70;;;24.50;65.30;;;;;;3911830;30;20056;-72
2022/08/22 10:51:36;;;;;;;0.00;0.00;;;24.50;65.30;;;;;;3900113;30;20160;-72
2022/08/22 10:54:37;;;;;;;0.00;0.00;;;24.50;65.20;;;;;;3899728;30;20057;-72
2022/08/22 10:57:12;;;;;;;0.00;0.00;;;24.50;65.20;;;;;;3912234;30;20053;-72
2022/08/22 10:59:43;;;;;;;0.00;0.00;;;24.60;65.20;;;;;;3912703;30;20417;-72
2022/08/22 11:02:29;;;;;;;0.00;0.00;;;24.60;65.20;;;;;;3897364;30;20049;-71
2022/08/22 11:05:24;;;;;;;0.00;0.00;;;24.60;65.00;;;;;;3884962;30;20518;-72
2022/08/22 11:07:53;;;;;;;0.05;0.05;;;24.70;65.00;;;;;;3898242;30;20068;-72
2022/08/22 11:10:26;;;;;;;0.00;0.00;;;24.70;65.00;;;;;;3899728;30;20627;-72
2022/08/22 11:13:01;;;;;;;0.00;0.00;;;24.70;64.90;;;;;;3927539;30;20048;-72
2022/08/22 11:15:50;;;;;;;0.10;0.10;;;24.70;64.90;;;;;;3927281;30;20463;-71
2022/08/22 11:18:24;;;;;;;0.15;0.15;;;24.70;64.60;;;;;;3922011;30;20056;-71
2022/08/22 11:20:56;;;;;;;0.20;0.20;;;24.70;64.40;;;;;;3912658;30;20060;-71
2022/08/22 11:23:31;;;;;;;1.27;0.88;;;24.70;64.20;;;;;;3899465;30;20060;-69
2022/08/22 11:26:02;;;;;;;0.20;0.20;;;24.70;64.00;;;;;;3911976;30;20056;-68
2022/08/22 11:29:00;;;;;;;0.32;0.32;;;24.80;64.00;;;;;;3912293;30;20057;-67
2022/08/22 11:31:40;;;;;;;0.10;0.10;;;24.80;64.00;;;;;;3911527;30;20163;-68
2022/08/22 11:34:14;;;;;;;0.00;0.00;;;24.80;63.90;;;;;;3912473;30;20049;-68
2022/08/22 11:36:41;;;;;;;0.00;0.00;;;24.80;63.80;;;;;;3911182;30;20545;-69
2022/08/22 11:39:21;;;;;;;0.00;0.00;;;24.80;63.70;;;;;;3911675;30;20056;-68
2022/08/22 11:41:49;;;;;;;0.80;0.80;;;24.80;63.60;;;;;;3912091;30;20052;-68
2022/08/22 11:44:20;;;;;;;0.00;0.00;;;24.80;63.60;;;;;;3912307;30;20059;-68
2022/08/22 11:46:46;;;;;;;0.00;0.00;;;24.80;63.30;;;;;;3911785;30;20528;-68
2022/08/22 11:49:40;;;;;;;0.05;0.05;;;24.80;63.00;;;;;;3912180;30;20060;-67
2022/08/22 11:52:15;;;;;;;0.00;0.00;;;24.80;63.10;;;;;;3912795;30;20079;-67
2022/08/22 11:54:52;;;;;;;0.00;0.00;;;24.90;62.90;;;;;;3912354;30;20056;-67
2022/08/22 11:57:21;;;;;;;0.00;0.00;;;24.90;62.90;;;;;;3911930;30;20146;-67
2022/08/22 12:00:18;;;;;;;0.00;0.00;;;24.90;62.90;;;;;;3898778;30;20502;-68
2022/08/22 12:02:51;;;;;;;6.03;2.20;;;25.00;63.60;;;;;;3912034;30;20136;-68
2022/08/22 12:05:19;;;;;;;0.10;0.10;;;25.00;62.70;;;;;;3912197;30;20072;-68
2022/08/22 12:07:54;;;;;;;0.00;0.00;;;25.00;62.10;;;;;;3911842;30;20072;-68
2022/08/22 12:10:19;;;;;;;0.00;0.00;;;25.10;62.10;;;;;;3912281;30;20064;-68
2022/08/22 12:12:54;;;;;;;0.00;0.00;;;25.10;61.90;;;;;;3912387;30;20070;-68
2022/08/22 12:15:23;;;;;;;0.00;0.00;;;25.20;61.30;;;;;;3912508;30;20056;-67
2022/08/22 12:18:28;;;;;;;0.20;0.20;;;25.20;60.70;;;;;;3911758;30;20059;-67
2022/08/22 12:21:19;;;;;;;0.00;0.00;;;25.20;60.90;;;;;;3912098;30;20056;-67
2022/08/22 12:24:14;;;;;;;0.00;0.00;;;25.30;60.90;;;;;;3906027;30;20053;-67
2022/08/22 12:26:51;;;;;;;0.00;0.00;;;25.30;60.60;;;;;;3909213;30;20440;-67
2022/08/22 12:29:28;;;;;;;0.00;0.00;;;25.30;59.90;;;;;;3912192;30;20057;-68
2022/08/22 12:32:32;;;;;;;0.00;0.00;;;25.30;59.90;;;;;;3898446;30;20069;-68
2022/08/22 12:35:08;;;;;;;0.00;0.00;;;25.30;59.90;;;;;;3897803;30;20091;-67
2022/08/22 12:37:43;;;;;;;0.00;0.00;;;25.30;59.80;;;;;;3898589;30;20057;-67
2022/08/22 12:40:31;;;;;;;0.00;0.00;;;25.30;59.90;;;;;;3911863;30;20071;-68
2022/08/22 12:43:20;;;;;;;0.30;0.30;;;25.30;60.00;;;;;;3911937;30;20156;-68
2022/08/22 12:45:59;;;;;;;0.00;0.00;;;25.30;60.00;;;;;;3911542;30;20051;-70
2022/08/22 12:48:39;;;;;;;0.00;0.00;;;25.30;59.60;;;;;;3898328;30;20107;-71
2022/08/22 12:51:20;;;;;;;2.38;1.20;;;25.30;59.80;;;;;;3911724;30;20057;-71
2022/08/22 12:54:12;;;;;;;0.00;0.00;;;25.40;59.40;;;;;;3911917;30;20082;-70
2022/08/22 12:56:43;;;;;;;0.00;0.00;;;25.30;59.20;;;;;;3910252;30;20053;-70
2022/08/22 12:59:21;;;;;;;0.00;0.00;;;25.40;59.20;;;;;;3911861;30;20139;-71
2022/08/22 13:01:46;;;;;;;0.10;0.10;;;25.40;58.80;;;;;;3910069;30;20434;-71
2022/08/22 13:04:14;;;;;;;0.20;0.20;;;25.40;58.80;;;;;;3911316;30;20052;-71
2022/08/22 13:06:55;;;;;;;0.00;0.00;;;25.40;59.00;;;;;;3911928;30;20131;-71
2022/08/22 13:09:27;;;;;;;0.00;0.00;;;25.40;59.20;;;;;;3911625;30;20053;-71
2022/08/22 13:11:53;;;;;;;0.00;0.00;;;25.40;59.10;;;;;;3911052;30;20131;-71
2022/08/22 13:14:21;;;;;;;0.88;0.88;;;25.40;58.90;;;;;;3897828;30;20489;-71
2022/08/22 13:16:50;;;;;;;0.30;0.30;;;25.40;58.90;;;;;;3911297;30;20455;-71
2022/08/22 13:19:20;;;;;;;0.00;0.00;;;25.40;59.00;;;;;;3911806;30;20062;-71
2022/08/22 13:21:47;;;;;;;0.00;0.00;;;25.40;59.10;;;;;;3911710;30;20049;-68
2022/08/22 13:24:15;;;;;;;0.00;0.00;;;25.50;59.20;;;;;;3911382;30;20076;-69
2022/08/22 13:26:48;;;;;;;0.10;0.10;;;25.50;58.80;;;;;;3883575;30;20053;-68
2022/08/22 13:29:17;;;;;;;0.00;0.00;;;25.50;59.20;;;;;;3896779;30;20068;-68
2022/08/22 13:31:53;;;;;;;0.00;0.00;;;25.50;59.20;;;;;;3897005;30;20073;-68